Terminal Aerodrome Forecast
Issued by NWS Miami, FL

Home | Current Version | Previous Version | Text Only | Print | Product List | Glossary On
Versions: 1 2 3 4 5 6 7 8 9 10 11 12 13 14 15 16 17 18 19 20 21 22 23 24 25
000
FTUS42 KMFL 240949 AAB
TAFAPF
TAF AMD
KAPF 240949Z 2410/2506 VRB05KT P6SM VCSH SCT020 BKN050 OVC250
      TEMPO 2410/2413 BKN020
     FM241400 16005KT 5SM SHRA VCTS SCT025CB BKN040 OVC080
     FM241700 26010KT P6SM VCSH SCT025 OVC050
     FM250000 34005KT P6SM FEW025 SCT050 BKN120=

USA.gov is the U.S. government's official web portal to all federal, state and local government web resources and services.